createdAt,value
2019-02-28T00:01:06.871Z,82.00
2019-02-28T00:03:36.229Z,82.10
2019-02-28T00:06:05.607Z,82.40
2019-02-28T00:08:35.255Z,82.80
2019-02-28T00:11:05.931Z,83.60
2019-02-28T00:13:35.714Z,83.60
2019-02-28T00:16:07.147Z,83.10
2019-02-28T00:18:36.497Z,83.30
2019-02-28T00:21:07.000Z,84.30
2019-02-28T00:23:36.814Z,84.20
2019-02-28T00:26:06.230Z,84.30
2019-02-28T00:28:35.806Z,84.40
2019-02-28T00:31:05.258Z,84.60
2019-02-28T00:33:34.632Z,84.60
2019-02-28T00:36:03.944Z,84.60
2019-02-28T00:38:33.519Z,84.70
2019-02-28T00:41:02.874Z,84.60
2019-02-28T00:43:32.187Z,84.50
2019-02-28T00:46:01.556Z,84.30
2019-02-28T00:48:31.020Z,84.10
2019-02-28T00:51:00.327Z,84.30
2019-02-28T00:53:29.636Z,84.40
2019-02-28T00:55:58.997Z,84.30
2019-02-28T00:58:28.859Z,84.90
2019-02-28T01:00:59.180Z,85.20
2019-02-28T01:03:28.547Z,85.80
2019-02-28T01:05:57.876Z,85.60
2019-02-28T01:08:27.161Z,85.60
2019-02-28T01:10:59.442Z,85.70
2019-02-28T01:13:28.787Z,86.30
2019-02-28T01:15:58.073Z,86.30
2019-02-28T01:18:27.682Z,86.10
2019-02-28T01:20:56.976Z,86.30
2019-02-28T01:23:29.413Z,86.10
2019-02-28T01:25:57.634Z,86.00
2019-02-28T01:28:27.702Z,86.30
2019-02-28T01:30:57.201Z,86.60
2019-02-28T01:33:26.758Z,86.60
2019-02-28T01:35:56.076Z,86.40
2019-02-28T01:38:25.386Z,86.90
2019-02-28T01:40:54.746Z,86.80
2019-02-28T01:43:28.524Z,87.10
2019-02-28T01:45:55.119Z,87.20
2019-02-28T01:48:24.476Z,87.40
2019-02-28T01:50:56.443Z,87.50
2019-02-28T01:53:25.766Z,88.00
2019-02-28T01:55:55.122Z,88.00
2019-02-28T01:58:24.733Z,88.60
2019-02-28T02:00:57.346Z,88.80
2019-02-28T02:03:25.492Z,89.20
2019-02-28T02:05:54.791Z,89.30
2019-02-28T02:08:24.531Z,89.50
2019-02-28T02:10:55.972Z,89.70
2019-02-28T02:13:24.945Z,89.90
2019-02-28T02:15:54.746Z,90.10
2019-02-28T02:18:24.191Z,90.20
2019-02-28T02:20:53.761Z,90.60
2019-02-28T02:23:23.356Z,90.70
2019-02-28T02:25:52.737Z,90.50
2019-02-28T02:28:26.661Z,90.70
2019-02-28T02:30:53.427Z,90.90
2019-02-28T02:33:23.116Z,91.00
2019-02-28T02:35:52.490Z,91.10
2019-02-28T02:38:21.795Z,91.00
2019-02-28T02:40:51.157Z,91.10
2019-02-28T02:43:21.992Z,91.10
2019-02-28T02:45:51.502Z,91.30
2019-02-28T02:48:20.858Z,91.20
2019-02-28T02:50:50.172Z,91.30
2019-02-28T02:53:19.785Z,91.60
2019-02-28T02:55:49.140Z,91.70
2019-02-28T02:58:18.451Z,91.80
2019-02-28T03:00:51.133Z,91.90
2019-02-28T03:03:18.839Z,92.00
2019-02-28T03:05:48.147Z,92.00
2019-02-28T03:08:17.769Z,92.20
2019-02-28T03:10:47.140Z,92.30
2019-02-28T03:13:16.761Z,92.50
2019-02-28T03:15:46.055Z,92.70
2019-02-28T03:18:20.559Z,93.20
2019-02-28T03:20:47.098Z,93.20
2019-02-28T03:23:16.415Z,93.30
2019-02-28T03:25:46.120Z,93.50
2019-02-28T03:28:15.445Z,93.60
2019-02-28T03:30:44.765Z,93.80
2019-02-28T03:33:24.179Z,94.00
2019-02-28T03:35:45.454Z,94.70
2019-02-28T03:38:14.768Z,94.70
2019-02-28T03:40:44.174Z,95.00
2019-02-28T03:43:13.758Z,95.30
2019-02-28T03:45:43.086Z,95.40
2019-02-28T03:48:12.418Z,95.80
2019-02-28T03:50:42.066Z,95.60
2019-02-28T03:53:11.390Z,95.50
2019-02-28T03:55:41.656Z,95.70
2019-02-28T03:58:11.414Z,95.80
2019-02-28T04:00:40.756Z,96.00
2019-02-28T04:03:10.416Z,96.10
2019-02-28T04:05:39.807Z,96.20
2019-02-28T04:08:09.152Z,96.10
2019-02-28T04:10:38.497Z,96.20
2019-02-28T04:13:08.125Z,96.50
2019-02-28T04:15:37.458Z,96.50
2019-02-28T04:18:08.411Z,96.70
2019-02-28T04:20:38.243Z,97.00
2019-02-28T04:23:07.513Z,97.00
2019-02-28T04:25:36.882Z,97.20
2019-02-28T04:28:06.202Z,97.20
2019-02-28T04:30:42.602Z,97.30
2019-02-28T04:33:06.883Z,97.20
2019-02-28T04:35:36.184Z,97.30
2019-02-28T04:38:05.752Z,97.50
2019-02-28T04:40:35.458Z,97.60
2019-02-28T04:43:07.284Z,97.70
2019-02-28T04:45:35.805Z,97.70
2019-02-28T04:48:05.418Z,97.70
2019-02-28T04:50:35.001Z,98.10
2019-02-28T04:53:04.318Z,97.60
2019-02-28T04:55:34.277Z,97.70
2019-02-28T04:58:05.111Z,97.80
2019-02-28T05:00:37.841Z,97.80
2019-02-28T05:03:05.937Z,98.00
2019-02-28T05:05:35.264Z,98.00
2019-02-28T05:08:05.579Z,98.00
2019-02-28T05:10:35.521Z,97.90
2019-02-28T05:13:05.156Z,97.80
2019-02-28T05:15:37.339Z,97.90
2019-02-28T05:18:05.554Z,98.20
2019-02-28T05:20:35.723Z,97.90
2019-02-28T05:23:05.039Z,97.90
2019-02-28T05:25:34.404Z,97.90
2019-02-28T05:28:06.724Z,97.90
2019-02-28T05:30:34.809Z,98.00
2019-02-28T05:33:06.647Z,98.00
2019-02-28T05:35:35.525Z,98.10
2019-02-28T05:38:04.891Z,98.20
2019-02-28T05:40:34.255Z,98.20
2019-02-28T05:43:03.572Z,98.20
2019-02-28T05:45:32.879Z,98.30
2019-02-28T05:48:03.907Z,98.30
2019-02-28T05:50:33.304Z,98.30
2019-02-28T05:53:03.072Z,98.40
2019-02-28T05:55:32.614Z,98.40
2019-02-28T05:58:04.752Z,98.50
2019-02-28T06:00:37.057Z,98.40
2019-02-28T06:03:05.487Z,98.30
2019-02-28T06:05:34.847Z,98.30
2019-02-28T06:08:04.496Z,98.50
2019-02-28T06:10:33.853Z,98.30
2019-02-28T06:13:03.169Z,98.20
2019-02-28T06:15:34.230Z,98.30
2019-02-28T06:18:03.849Z,98.30
2019-02-28T06:20:34.996Z,98.20
2019-02-28T06:23:06.282Z,98.50
2019-02-28T06:25:35.390Z,98.30
2019-02-28T06:28:05.049Z,98.10
2019-02-28T06:30:34.660Z,98.20
2019-02-28T06:33:04.260Z,98.40
2019-02-28T06:35:33.571Z,98.10
2019-02-28T06:38:02.906Z,98.50
2019-02-28T06:40:33.122Z,98.10
2019-02-28T06:43:03.259Z,98.00
2019-02-28T06:45:36.716Z,97.90
2019-02-28T06:48:03.652Z,97.80
2019-02-28T06:50:32.972Z,97.70
2019-02-28T06:53:02.335Z,97.80
2019-02-28T06:55:31.696Z,97.80
2019-02-28T06:58:01.285Z,97.70
2019-02-28T07:00:30.597Z,97.50
2019-02-28T07:03:03.417Z,97.30
2019-02-28T07:05:31.302Z,97.20
2019-02-28T07:08:00.611Z,97.00
2019-02-28T07:10:30.037Z,97.00
2019-02-28T07:13:04.074Z,96.60
2019-02-28T07:15:30.387Z,96.60
2019-02-28T07:18:01.870Z,96.40
2019-02-28T07:20:31.194Z,96.20
2019-02-28T07:23:00.496Z,95.90
2019-02-28T07:25:29.856Z,95.80
2019-02-28T07:28:01.514Z,95.60
2019-02-28T07:30:30.214Z,95.30
2019-02-28T07:33:01.972Z,95.30
2019-02-28T07:35:33.777Z,95.20
2019-02-28T07:38:02.367Z,95.10
2019-02-28T07:40:33.290Z,95.20
2019-02-28T07:43:02.864Z,94.90
2019-02-28T07:45:33.118Z,94.70
2019-02-28T07:48:03.626Z,94.50
2019-02-28T07:50:32.958Z,93.90
2019-02-28T07:53:05.520Z,93.80
2019-02-28T07:55:33.660Z,93.20
2019-02-28T07:58:03.032Z,93.30
2019-02-28T08:00:32.713Z,93.10
2019-02-28T08:03:02.078Z,92.60
2019-02-28T08:05:31.582Z,92.30
2019-02-28T08:08:01.326Z,92.30
2019-02-28T08:10:35.400Z,92.30
2019-02-28T08:13:04.793Z,91.90
2019-02-28T08:15:34.542Z,91.90
2019-02-28T08:18:05.771Z,91.30
2019-02-28T08:20:35.029Z,91.10
2019-02-28T08:23:04.592Z,90.70
2019-02-28T08:25:33.983Z,91.10
2019-02-28T08:28:03.260Z,90.90
2019-02-28T08:30:35.164Z,90.80
2019-02-28T08:33:04.892Z,90.80
2019-02-28T08:35:35.744Z,90.40
2019-02-28T08:38:06.729Z,90.40
2019-02-28T08:40:36.378Z,90.20
2019-02-28T08:43:05.689Z,90.30
2019-02-28T08:45:35.023Z,90.10
2019-02-28T08:48:07.898Z,89.70
2019-02-28T08:50:37.339Z,89.80
2019-02-28T08:53:12.416Z,89.80
2019-02-28T08:55:44.201Z,90.00
2019-02-28T08:58:12.498Z,88.60
2019-02-28T09:00:41.814Z,87.90
2019-02-28T09:03:11.198Z,87.50
2019-02-28T09:05:40.815Z,87.70
2019-02-28T09:08:10.407Z,87.70
2019-02-28T09:10:39.778Z,87.20
2019-02-28T09:13:09.089Z,87.40
2019-02-28T09:15:38.877Z,87.20
2019-02-28T09:18:11.027Z,87.60
2019-02-28T09:20:41.443Z,87.60
2019-02-28T09:23:11.811Z,87.90
2019-02-28T09:25:42.092Z,87.70
2019-02-28T09:28:13.034Z,87.60
2019-02-28T09:30:49.638Z,87.20
2019-02-28T09:33:19.361Z,87.30
2019-02-28T09:35:50.003Z,87.50
2019-02-28T09:38:19.647Z,87.60
2019-02-28T09:40:49.240Z,86.50
2019-02-28T09:43:18.562Z,87.40
2019-02-28T09:45:47.939Z,86.40
2019-02-28T09:48:17.255Z,86.20
2019-02-28T09:50:46.572Z,86.00
2019-02-28T09:53:16.763Z,87.10
2019-02-28T09:55:48.061Z,86.40
2019-02-28T09:58:17.724Z,86.50
2019-02-28T10:00:50.217Z,86.80
2019-02-28T10:03:19.417Z,85.20
2019-02-28T10:05:49.198Z,86.00
2019-02-28T10:08:18.814Z,85.80
2019-02-28T10:10:48.129Z,85.40
2019-02-28T10:13:18.495Z,85.80
2019-02-28T10:15:48.116Z,86.00
2019-02-28T10:18:17.442Z,86.10
2019-02-28T10:20:46.805Z,86.00
2019-02-28T10:23:18.459Z,85.50
2019-02-28T10:25:47.498Z,85.90
2019-02-28T10:28:17.310Z,86.70
2019-02-28T10:30:47.185Z,86.70
2019-02-28T10:33:18.103Z,85.60
2019-02-28T10:35:48.117Z,86.00
2019-02-28T10:38:17.432Z,86.20
2019-02-28T10:40:49.305Z,85.50
2019-02-28T10:43:21.214Z,85.80
2019-02-28T10:45:50.538Z,86.50
2019-02-28T10:48:19.866Z,86.50
2019-02-28T10:50:49.312Z,86.40
2019-02-28T10:53:18.907Z,86.40
2019-02-28T10:55:48.227Z,87.00
2019-02-28T10:58:17.938Z,87.50
2019-02-28T11:00:47.333Z,86.80
2019-02-28T11:03:17.095Z,87.70
2019-02-28T11:05:46.808Z,88.30
2019-02-28T11:08:19.253Z,87.30
2019-02-28T11:10:49.279Z,87.80
2019-02-28T11:13:22.496Z,87.20
2019-02-28T11:15:52.555Z,87.60
2019-02-28T11:18:22.457Z,88.20
2019-02-28T11:20:51.989Z,87.50
2019-02-28T11:23:23.313Z,88.80
2019-02-28T11:25:53.085Z,87.80
2019-02-28T11:28:27.778Z,88.20
2019-02-28T11:30:54.167Z,88.50
2019-02-28T11:33:23.891Z,88.80
2019-02-28T11:35:57.667Z,89.10
2019-02-28T11:38:24.360Z,88.20
2019-02-28T11:40:57.273Z,88.00
2019-02-28T11:43:26.816Z,88.70
2019-02-28T11:46:00.821Z,87.20
2019-02-28T11:48:29.748Z,86.40
2019-02-28T11:50:59.197Z,86.60
2019-02-28T11:53:28.518Z,87.40
2019-02-28T11:55:58.251Z,85.20
2019-02-28T11:58:27.949Z,85.00
2019-02-28T12:00:57.645Z,85.20
2019-02-28T12:03:27.083Z,82.40
2019-02-28T12:05:56.508Z,81.90
2019-02-28T12:08:25.825Z,80.70
2019-02-28T12:10:55.139Z,80.90
2019-02-28T12:13:24.572Z,79.80
2019-02-28T12:15:54.178Z,80.30
2019-02-28T12:18:23.526Z,79.70
2019-02-28T12:20:53.009Z,80.90
2019-02-28T12:23:23.415Z,79.70
2019-02-28T12:25:53.440Z,79.60
2019-02-28T12:28:22.883Z,80.20
2019-02-28T12:30:52.195Z,79.30
2019-02-28T12:33:23.377Z,79.40
2019-02-28T12:35:54.793Z,79.30
2019-02-28T12:38:25.906Z,79.30
2019-02-28T12:40:55.340Z,79.50
2019-02-28T12:43:24.991Z,78.90
2019-02-28T12:45:56.797Z,79.10
2019-02-28T12:48:27.124Z,79.50
2019-02-28T12:50:56.873Z,79.60
2019-02-28T12:53:26.212Z,79.90
2019-02-28T12:55:55.520Z,80.60
2019-02-28T12:58:24.887Z,81.60
2019-02-28T13:00:56.394Z,82.30
2019-02-28T13:03:25.945Z,82.50
2019-02-28T13:05:55.314Z,83.60
2019-02-28T13:08:24.717Z,85.10
2019-02-28T13:10:54.446Z,87.30
2019-02-28T13:13:27.647Z,90.30
2019-02-28T13:15:55.207Z,91.20
2019-02-28T13:18:24.530Z,91.70
2019-02-28T13:20:54.198Z,92.70
2019-02-28T13:23:23.514Z,93.30
2019-02-28T13:25:58.815Z,93.60
2019-02-28T13:28:23.949Z,94.10
2019-02-28T13:30:53.353Z,94.70
2019-02-28T13:33:22.965Z,94.90
2019-02-28T13:35:52.657Z,94.80
2019-02-28T13:38:22.402Z,94.70
2019-02-28T13:40:51.733Z,94.50
2019-02-28T13:43:22.792Z,94.60
2019-02-28T13:45:55.974Z,94.30
2019-02-28T13:48:26.562Z,94.40
2019-02-28T13:50:55.040Z,94.50
2019-02-28T13:53:27.008Z,94.10
2019-02-28T13:55:57.873Z,94.10
2019-02-28T13:58:26.490Z,94.30
2019-02-28T14:00:58.847Z,94.00
2019-02-28T14:03:28.486Z,94.10
2019-02-28T14:05:58.132Z,93.80
2019-02-28T14:08:27.700Z,94.00
2019-02-28T14:10:57.033Z,93.80
2019-02-28T14:13:30.034Z,93.80
2019-02-28T14:15:57.833Z,93.00
2019-02-28T14:18:27.153Z,92.80
2019-02-28T14:20:59.432Z,92.40
2019-02-28T14:23:27.748Z,92.40
2019-02-28T14:25:57.138Z,92.20
2019-02-28T14:28:26.582Z,92.20
2019-02-28T14:30:57.517Z,91.80
2019-02-28T14:33:27.118Z,91.80
2019-02-28T14:35:56.863Z,91.90
2019-02-28T14:38:26.210Z,91.70
2019-02-28T14:40:55.505Z,91.60
2019-02-28T14:43:24.869Z,91.20
2019-02-28T14:45:54.192Z,90.90
2019-02-28T14:48:23.698Z,90.40
2019-02-28T14:50:54.077Z,89.70
2019-02-28T14:53:24.352Z,89.40
2019-02-28T14:55:54.041Z,88.20
2019-02-28T14:58:23.406Z,89.30
2019-02-28T15:00:52.897Z,89.60
2019-02-28T15:03:22.223Z,90.00
2019-02-28T15:05:52.410Z,90.20
2019-02-28T15:08:22.925Z,90.50
2019-02-28T15:10:53.284Z,90.70
2019-02-28T15:13:23.050Z,90.90
2019-02-28T15:15:53.213Z,90.50
2019-02-28T15:18:23.370Z,90.30
2019-02-28T15:20:52.763Z,90.90
2019-02-28T15:23:22.386Z,90.90
2019-02-28T15:25:54.199Z,91.00
2019-02-28T15:28:24.277Z,91.40
2019-02-28T15:30:53.973Z,91.60
2019-02-28T15:33:23.579Z,91.80
2019-02-28T15:35:53.210Z,91.90
2019-02-28T15:38:22.631Z,91.90
2019-02-28T15:40:51.944Z,91.90
2019-02-28T15:43:21.595Z,91.90
2019-02-28T15:45:50.910Z,92.00
2019-02-28T15:48:20.226Z,92.20
2019-02-28T15:50:51.696Z,92.20
2019-02-28T15:53:20.654Z,92.20
2019-02-28T15:55:50.120Z,92.20
2019-02-28T15:58:19.550Z,92.30
2019-02-28T16:00:48.944Z,92.20
2019-02-28T16:03:18.544Z,92.30
2019-02-28T16:05:48.080Z,92.50
2019-02-28T16:08:17.396Z,92.30
2019-02-28T16:10:53.294Z,92.40
2019-02-28T16:13:18.107Z,92.40
2019-02-28T16:15:49.934Z,92.00
2019-02-28T16:18:18.506Z,92.00
2019-02-28T16:20:47.976Z,92.10
2019-02-28T16:23:17.554Z,91.70
2019-02-28T16:25:47.857Z,91.80
2019-02-28T16:28:18.303Z,92.00
2019-02-28T16:30:48.024Z,91.50
2019-02-28T16:33:20.832Z,91.60
2019-02-28T16:35:50.224Z,91.40
2019-02-28T16:38:19.798Z,91.40
2019-02-28T16:40:49.262Z,91.20
2019-02-28T16:43:20.947Z,91.10
2019-02-28T16:45:51.202Z,91.30
2019-02-28T16:48:20.537Z,91.20
2019-02-28T16:50:50.628Z,91.70
2019-02-28T16:53:20.951Z,91.50
2019-02-28T16:55:50.550Z,91.40
2019-02-28T16:58:21.897Z,91.50
2019-02-28T17:00:51.131Z,91.60
2019-02-28T17:03:20.705Z,91.80
2019-02-28T17:05:50.073Z,92.10
2019-02-28T17:08:19.564Z,92.90
2019-02-28T17:10:49.538Z,93.50
2019-02-28T17:13:26.623Z,94.00
2019-02-28T17:16:02.378Z,94.60
2019-02-28T17:18:33.264Z,94.70
2019-02-28T17:21:02.658Z,94.70
2019-02-28T17:23:33.683Z,94.90
2019-02-28T17:26:03.651Z,94.90
2019-02-28T17:28:37.611Z,94.90
2019-02-28T17:31:20.807Z,94.80
2019-02-28T17:33:50.382Z,94.80
2019-02-28T17:36:20.575Z,94.70
2019-02-28T17:38:50.963Z,94.70
2019-02-28T17:41:20.274Z,94.90
2019-02-28T17:44:18.295Z,94.90
2019-02-28T17:46:52.405Z,94.90
2019-02-28T17:49:49.910Z,94.80
2019-02-28T17:52:30.505Z,94.90
2019-02-28T17:55:27.041Z,94.70
2019-02-28T17:58:20.813Z,94.60
2019-02-28T18:01:09.874Z,94.70
2019-02-28T18:03:49.780Z,94.80
2019-02-28T18:06:56.860Z,95.00
2019-02-28T18:09:51.502Z,95.00
2019-02-28T18:12:56.663Z,95.00
2019-02-28T18:15:50.823Z,94.90
2019-02-28T18:18:42.529Z,94.80
2019-02-28T18:21:31.762Z,94.80
2019-02-28T18:24:05.749Z,95.00
2019-02-28T18:26:51.566Z,95.40
2019-02-28T18:29:37.503Z,95.30
2019-02-28T18:32:06.954Z,95.20
2019-02-28T18:34:37.388Z,95.00
2019-02-28T18:37:07.818Z,95.00
2019-02-28T18:39:37.148Z,95.10
2019-02-28T18:42:06.509Z,95.40
2019-02-28T18:44:37.460Z,95.20
2019-02-28T18:47:07.610Z,95.80
2019-02-28T18:49:37.095Z,96.00
2019-02-28T18:52:06.775Z,96.40
2019-02-28T18:54:36.091Z,96.60
2019-02-28T18:57:05.791Z,96.80
2019-02-28T18:59:35.396Z,97.10
2019-02-28T19:02:05.497Z,97.30
2019-02-28T19:04:34.878Z,97.90
2019-02-28T19:07:04.193Z,98.30
2019-02-28T19:09:33.827Z,98.70
2019-02-28T19:12:03.194Z,98.70
2019-02-28T19:14:32.512Z,98.90
2019-02-28T19:17:01.819Z,99.20
2019-02-28T19:19:31.432Z,99.00
2019-02-28T19:22:00.744Z,98.90
2019-02-28T19:24:30.062Z,99.10
2019-02-28T19:26:59.428Z,98.90
2019-02-28T19:29:29.046Z,98.60
2019-02-28T19:31:58.360Z,98.70
2019-02-28T19:34:27.784Z,98.50
2019-02-28T19:36:57.292Z,98.30
2019-02-28T19:39:26.880Z,98.40
2019-02-28T19:41:56.240Z,98.50
2019-02-28T19:44:25.557Z,98.30
2019-02-28T19:46:54.869Z,98.80
2019-02-28T19:49:24.243Z,98.60
2019-02-28T19:51:53.608Z,98.80
2019-02-28T19:54:22.916Z,98.90
2019-02-28T19:56:54.931Z,98.90
2019-02-28T19:59:24.251Z,98.80
2019-02-28T20:01:53.601Z,98.80
2019-02-28T20:04:22.958Z,99.00
2019-02-28T20:06:52.283Z,99.10
2019-02-28T20:09:21.668Z,99.50
2019-02-28T20:11:51.447Z,99.30
2019-02-28T20:14:20.762Z,99.40
2019-02-28T20:16:50.251Z,99.80
2019-02-28T20:19:19.637Z,99.90
2019-02-28T20:21:49.010Z,99.90
2019-02-28T20:24:18.318Z,99.90
2019-02-28T20:26:47.797Z,99.90
2019-02-28T20:29:19.025Z,99.90
2019-02-28T20:31:48.724Z,99.90
2019-02-28T20:34:18.487Z,99.90
2019-02-28T20:36:47.801Z,99.90
2019-02-28T20:39:17.389Z,99.90
2019-02-28T20:41:47.030Z,99.90
2019-02-28T20:44:16.522Z,99.90
2019-02-28T20:46:46.171Z,99.90
2019-02-28T20:49:15.566Z,99.90
2019-02-28T20:51:54.587Z,99.90
2019-02-28T20:54:16.265Z,99.90
2019-02-28T20:56:45.609Z,99.90
2019-02-28T20:59:14.888Z,99.90
2019-02-28T21:01:44.354Z,99.90
2019-02-28T21:04:13.664Z,99.90
2019-02-28T21:06:43.035Z,99.90
2019-02-28T21:09:15.586Z,99.90
2019-02-28T21:11:44.907Z,99.90
2019-02-28T21:14:14.330Z,99.90
2019-02-28T21:16:43.640Z,99.90
2019-02-28T21:19:12.957Z,99.90
2019-02-28T21:21:42.552Z,99.90
2019-02-28T21:24:12.221Z,99.90
2019-02-28T21:26:41.532Z,99.90
2019-02-28T21:29:11.220Z,99.90
2019-02-28T21:31:40.523Z,99.90
2019-02-28T21:34:09.839Z,99.90
2019-02-28T21:36:39.536Z,99.90
2019-02-28T21:39:09.806Z,99.90
2019-02-28T21:41:39.117Z,99.90
2019-02-28T21:44:08.757Z,99.90
2019-02-28T21:46:38.064Z,99.90
2019-02-28T21:49:07.378Z,99.90
2019-02-28T21:51:36.764Z,99.90
2019-02-28T21:54:06.091Z,99.90
2019-02-28T21:56:35.401Z,99.90
2019-02-28T21:59:05.165Z,99.90
2019-02-28T22:01:34.536Z,99.90
2019-02-28T22:04:05.318Z,99.90
2019-02-28T22:06:34.743Z,99.90
2019-02-28T22:09:05.991Z,99.90
2019-02-28T22:11:35.297Z,99.90
2019-02-28T22:14:04.669Z,99.90
2019-02-28T22:16:33.981Z,99.90
2019-02-28T22:19:03.291Z,99.90
2019-02-28T22:21:32.964Z,99.90
2019-02-28T22:24:02.281Z,99.90
2019-02-28T22:26:31.604Z,99.90
2019-02-28T22:29:00.963Z,99.90
2019-02-28T22:31:31.971Z,99.90
2019-02-28T22:34:09.009Z,99.90
2019-02-28T22:36:39.964Z,99.90
2019-02-28T22:39:11.115Z,99.90
2019-02-28T22:41:40.776Z,99.90
2019-02-28T22:44:10.092Z,99.90
2019-02-28T22:46:39.406Z,99.90
2019-02-28T22:49:11.482Z,99.90
2019-02-28T22:51:40.775Z,99.90
2019-02-28T22:54:10.082Z,99.90
2019-02-28T22:56:39.762Z,99.90
2019-02-28T22:59:09.366Z,99.90
2019-02-28T23:01:39.394Z,99.90
2019-02-28T23:04:08.749Z,99.90
2019-02-28T23:06:38.398Z,99.90
2019-02-28T23:09:08.333Z,99.90
2019-02-28T23:11:37.677Z,99.90
2019-02-28T23:14:06.996Z,99.90
2019-02-28T23:16:36.301Z,99.90
2019-02-28T23:19:06.109Z,99.90
2019-02-28T23:21:35.498Z,99.90
2019-02-28T23:24:05.132Z,99.90
2019-02-28T23:26:55.325Z,99.90
2019-02-28T23:29:27.257Z,99.90
2019-02-28T23:32:31.310Z,99.90
2019-02-28T23:35:00.628Z,99.90
2019-02-28T23:37:30.199Z,99.90
2019-02-28T23:39:59.566Z,99.90
2019-02-28T23:42:28.877Z,99.90
2019-02-28T23:44:58.242Z,99.90
2019-02-28T23:47:27.927Z,99.90
2019-02-28T23:49:57.229Z,99.90
2019-02-28T23:52:26.609Z,99.90
2019-02-28T23:54:55.947Z,99.90
2019-02-28T23:57:25.531Z,99.90
2019-02-28T23:59:54.845Z,99.90
